sensor_id;sensor_type;location;lat;lon;timestamp;P1;durP1;ratioP1;P2;durP2;ratioP2
32906;SDS011;19259;51.590;5.320;2022-07-23T00:00:21;5.53;;;3.50;;
32906;SDS011;19259;51.590;5.320;2022-07-23T00:02:49;9.65;;;3.92;;
32906;SDS011;19259;51.590;5.320;2022-07-23T00:05:16;8.03;;;4.60;;
32906;SDS011;19259;51.590;5.320;2022-07-23T00:07:44;7.47;;;4.10;;
32906;SDS011;19259;51.590;5.320;2022-07-23T00:10:11;9.40;;;4.65;;
32906;SDS011;19259;51.590;5.320;2022-07-23T00:12:39;8.10;;;4.15;;
32906;SDS011;19259;51.590;5.320;2022-07-23T00:15:07;8.55;;;4.50;;
32906;SDS011;19259;51.590;5.320;2022-07-23T00:17:35;7.45;;;4.15;;
32906;SDS011;19259;51.590;5.320;2022-07-23T00:20:03;13.35;;;4.80;;
32906;SDS011;19259;51.590;5.320;2022-07-23T00:22:32;9.33;;;5.47;;
32906;SDS011;19259;51.590;5.320;2022-07-23T00:24:59;10.85;;;5.95;;
32906;SDS011;19259;51.590;5.320;2022-07-23T00:27:27;17.20;;;9.05;;
32906;SDS011;19259;51.590;5.320;2022-07-23T00:29:54;15.28;;;8.50;;
32906;SDS011;19259;51.590;5.320;2022-07-23T00:32:22;17.35;;;10.30;;
32906;SDS011;19259;51.590;5.320;2022-07-23T00:34:49;16.00;;;9.38;;
32906;SDS011;19259;51.590;5.320;2022-07-23T00:37:17;19.00;;;9.90;;
32906;SDS011;19259;51.590;5.320;2022-07-23T00:39:44;18.87;;;9.93;;
32906;SDS011;19259;51.590;5.320;2022-07-23T00:42:12;20.08;;;8.95;;
32906;SDS011;19259;51.590;5.320;2022-07-23T00:44:41;14.80;;;8.18;;
32906;SDS011;19259;51.590;5.320;2022-07-23T00:47:09;15.10;;;8.68;;
32906;SDS011;19259;51.590;5.320;2022-07-23T00:49:36;16.17;;;7.65;;
32906;SDS011;19259;51.590;5.320;2022-07-23T00:52:04;14.00;;;7.92;;
32906;SDS011;19259;51.590;5.320;2022-07-23T00:54:32;12.20;;;6.30;;
32906;SDS011;19259;51.590;5.320;2022-07-23T00:57:00;12.25;;;7.42;;
32906;SDS011;19259;51.590;5.320;2022-07-23T00:59:27;10.40;;;6.30;;
32906;SDS011;19259;51.590;5.320;2022-07-23T01:01:57;16.60;;;7.65;;
32906;SDS011;19259;51.590;5.320;2022-07-23T01:04:27;19.57;;;6.12;;
32906;SDS011;19259;51.590;5.320;2022-07-23T01:06:54;10.72;;;6.12;;
32906;SDS011;19259;51.590;5.320;2022-07-23T01:09:22;9.80;;;5.67;;
32906;SDS011;19259;51.590;5.320;2022-07-23T01:11:50;11.40;;;5.30;;
32906;SDS011;19259;51.590;5.320;2022-07-23T01:14:18;9.13;;;5.42;;
32906;SDS011;19259;51.590;5.320;2022-07-23T01:16:46;9.93;;;5.28;;
32906;SDS011;19259;51.590;5.320;2022-07-23T01:19:15;12.85;;;5.80;;
32906;SDS011;19259;51.590;5.320;2022-07-23T01:21:48;9.65;;;5.40;;
32906;SDS011;19259;51.590;5.320;2022-07-23T01:24:17;9.73;;;4.83;;
32906;SDS011;19259;51.590;5.320;2022-07-23T01:26:47;10.88;;;5.42;;
32906;SDS011;19259;51.590;5.320;2022-07-23T01:29:16;12.05;;;4.90;;
32906;SDS011;19259;51.590;5.320;2022-07-23T01:31:44;8.60;;;5.30;;
32906;SDS011;19259;51.590;5.320;2022-07-23T01:34:12;11.97;;;5.40;;
32906;SDS011;19259;51.590;5.320;2022-07-23T01:36:47;9.50;;;5.17;;
32906;SDS011;19259;51.590;5.320;2022-07-23T01:39:16;12.00;;;5.60;;
32906;SDS011;19259;51.590;5.320;2022-07-23T01:41:40;10.28;;;5.17;;
32906;SDS011;19259;51.590;5.320;2022-07-23T01:44:08;11.30;;;5.28;;
32906;SDS011;19259;51.590;5.320;2022-07-23T01:46:35;8.68;;;5.05;;
32906;SDS011;19259;51.590;5.320;2022-07-23T01:49:04;11.55;;;6.20;;
32906;SDS011;19259;51.590;5.320;2022-07-23T01:51:32;12.68;;;5.67;;
32906;SDS011;19259;51.590;5.320;2022-07-23T01:53:59;10.35;;;5.10;;
32906;SDS011;19259;51.590;5.320;2022-07-23T01:56:27;10.63;;;4.83;;
32906;SDS011;19259;51.590;5.320;2022-07-23T01:58:54;12.80;;;5.17;;
32906;SDS011;19259;51.590;5.320;2022-07-23T02:01:22;9.25;;;5.03;;
32906;SDS011;19259;51.590;5.320;2022-07-23T02:03:50;10.95;;;6.00;;
32906;SDS011;19259;51.590;5.320;2022-07-23T02:06:17;12.55;;;6.05;;
32906;SDS011;19259;51.590;5.320;2022-07-23T02:08:45;10.30;;;5.40;;
32906;SDS011;19259;51.590;5.320;2022-07-23T02:11:12;9.35;;;5.53;;
32906;SDS011;19259;51.590;5.320;2022-07-23T02:13:40;10.55;;;5.70;;
32906;SDS011;19259;51.590;5.320;2022-07-23T02:16:07;10.53;;;6.22;;
32906;SDS011;19259;51.590;5.320;2022-07-23T02:18:36;8.98;;;5.22;;
32906;SDS011;19259;51.590;5.320;2022-07-23T02:21:04;10.63;;;5.72;;
32906;SDS011;19259;51.590;5.320;2022-07-23T02:23:31;9.28;;;5.70;;
32906;SDS011;19259;51.590;5.320;2022-07-23T02:25:59;10.85;;;5.50;;
32906;SDS011;19259;51.590;5.320;2022-07-23T02:28:26;12.18;;;6.22;;
32906;SDS011;19259;51.590;5.320;2022-07-23T02:30:54;14.15;;;6.70;;
32906;SDS011;19259;51.590;5.320;2022-07-23T02:33:23;10.70;;;5.33;;
32906;SDS011;19259;51.590;5.320;2022-07-23T02:35:51;13.43;;;6.72;;
32906;SDS011;19259;51.590;5.320;2022-07-23T02:38:18;12.55;;;5.87;;
32906;SDS011;19259;51.590;5.320;2022-07-23T02:40:46;11.75;;;5.97;;
32906;SDS011;19259;51.590;5.320;2022-07-23T02:43:13;14.80;;;6.83;;
32906;SDS011;19259;51.590;5.320;2022-07-23T02:45:41;12.35;;;6.67;;
32906;SDS011;19259;51.590;5.320;2022-07-23T02:48:09;9.48;;;6.22;;
32906;SDS011;19259;51.590;5.320;2022-07-23T02:50:39;13.70;;;7.15;;
32906;SDS011;19259;51.590;5.320;2022-07-23T02:53:09;13.95;;;5.95;;
32906;SDS011;19259;51.590;5.320;2022-07-23T02:55:36;11.80;;;6.45;;
32906;SDS011;19259;51.590;5.320;2022-07-23T02:58:04;10.53;;;6.62;;
32906;SDS011;19259;51.590;5.320;2022-07-23T03:00:31;13.45;;;6.47;;
32906;SDS011;19259;51.590;5.320;2022-07-23T03:02:59;12.75;;;6.72;;
32906;SDS011;19259;51.590;5.320;2022-07-23T03:05:27;12.53;;;7.67;;
32906;SDS011;19259;51.590;5.320;2022-07-23T03:07:54;16.82;;;7.40;;
32906;SDS011;19259;51.590;5.320;2022-07-23T03:10:22;11.57;;;6.45;;
32906;SDS011;19259;51.590;5.320;2022-07-23T03:12:49;11.35;;;6.45;;
32906;SDS011;19259;51.590;5.320;2022-07-23T03:15:17;13.88;;;6.97;;
32906;SDS011;19259;51.590;5.320;2022-07-23T03:17:44;11.55;;;6.33;;
32906;SDS011;19259;51.590;5.320;2022-07-23T03:20:12;17.15;;;8.30;;
32906;SDS011;19259;51.590;5.320;2022-07-23T03:22:39;14.45;;;7.30;;
32906;SDS011;19259;51.590;5.320;2022-07-23T03:25:08;12.95;;;7.20;;
32906;SDS011;19259;51.590;5.320;2022-07-23T03:27:35;12.82;;;6.87;;
32906;SDS011;19259;51.590;5.320;2022-07-23T03:30:03;17.45;;;6.95;;
32906;SDS011;19259;51.590;5.320;2022-07-23T03:32:31;16.42;;;7.92;;
32906;SDS011;19259;51.590;5.320;2022-07-23T03:34:59;10.00;;;6.65;;
32906;SDS011;19259;51.590;5.320;2022-07-23T03:37:26;12.35;;;7.25;;
32906;SDS011;19259;51.590;5.320;2022-07-23T03:39:57;12.30;;;6.92;;
32906;SDS011;19259;51.590;5.320;2022-07-23T03:42:24;14.80;;;6.78;;
32906;SDS011;19259;51.590;5.320;2022-07-23T03:44:52;12.70;;;7.12;;
32906;SDS011;19259;51.590;5.320;2022-07-23T03:47:19;13.32;;;7.03;;
32906;SDS011;19259;51.590;5.320;2022-07-23T03:49:48;13.03;;;6.22;;
32906;SDS011;19259;51.590;5.320;2022-07-23T03:52:16;12.23;;;6.60;;
32906;SDS011;19259;51.590;5.320;2022-07-23T03:54:43;10.48;;;6.53;;
32906;SDS011;19259;51.590;5.320;2022-07-23T03:57:16;13.45;;;6.80;;
32906;SDS011;19259;51.590;5.320;2022-07-23T03:59:45;15.10;;;7.15;;
32906;SDS011;19259;51.590;5.320;2022-07-23T04:02:13;13.83;;;6.60;;
32906;SDS011;19259;51.590;5.320;2022-07-23T04:04:40;14.45;;;7.87;;
32906;SDS011;19259;51.590;5.320;2022-07-23T04:07:08;15.55;;;8.15;;
32906;SDS011;19259;51.590;5.320;2022-07-23T04:09:35;14.07;;;6.30;;
32906;SDS011;19259;51.590;5.320;2022-07-23T04:12:03;12.30;;;6.87;;
32906;SDS011;19259;51.590;5.320;2022-07-23T04:14:31;16.10;;;7.53;;
32906;SDS011;19259;51.590;5.320;2022-07-23T04:16:59;12.15;;;7.05;;
32906;SDS011;19259;51.590;5.320;2022-07-23T04:19:26;15.20;;;7.22;;
32906;SDS011;19259;51.590;5.320;2022-07-23T04:21:56;13.62;;;8.08;;
32906;SDS011;19259;51.590;5.320;2022-07-23T04:24:24;12.90;;;6.87;;
32906;SDS011;19259;51.590;5.320;2022-07-23T04:26:51;14.40;;;7.62;;
32906;SDS011;19259;51.590;5.320;2022-07-23T04:29:19;15.05;;;7.15;;
32906;SDS011;19259;51.590;5.320;2022-07-23T04:31:46;12.00;;;7.33;;
32906;SDS011;19259;51.590;5.320;2022-07-23T04:34:14;13.45;;;6.65;;
32906;SDS011;19259;51.590;5.320;2022-07-23T04:36:41;10.35;;;6.62;;
32906;SDS011;19259;51.590;5.320;2022-07-23T04:39:10;15.60;;;7.03;;
32906;SDS011;19259;51.590;5.320;2022-07-23T04:41:38;18.23;;;7.97;;
32906;SDS011;19259;51.590;5.320;2022-07-23T04:44:05;11.45;;;6.50;;
32906;SDS011;19259;51.590;5.320;2022-07-23T04:46:33;13.95;;;6.72;;
32906;SDS011;19259;51.590;5.320;2022-07-23T04:49:00;14.73;;;7.30;;
32906;SDS011;19259;51.590;5.320;2022-07-23T04:51:28;14.30;;;6.55;;
32906;SDS011;19259;51.590;5.320;2022-07-23T04:53:56;10.68;;;6.30;;
32906;SDS011;19259;51.590;5.320;2022-07-23T04:56:23;18.37;;;7.25;;
32906;SDS011;19259;51.590;5.320;2022-07-23T04:58:51;10.20;;;6.05;;
32906;SDS011;19259;51.590;5.320;2022-07-23T05:01:22;11.53;;;6.25;;
32906;SDS011;19259;51.590;5.320;2022-07-23T05:03:52;12.73;;;6.90;;
32906;SDS011;19259;51.590;5.320;2022-07-23T05:06:21;8.28;;;5.12;;
32906;SDS011;19259;51.590;5.320;2022-07-23T05:08:48;8.83;;;5.53;;
32906;SDS011;19259;51.590;5.320;2022-07-23T05:11:21;8.15;;;5.30;;
32906;SDS011;19259;51.590;5.320;2022-07-23T05:13:48;10.00;;;5.30;;
32906;SDS011;19259;51.590;5.320;2022-07-23T05:16:17;9.20;;;5.78;;
32906;SDS011;19259;51.590;5.320;2022-07-23T05:18:44;13.53;;;6.65;;
32906;SDS011;19259;51.590;5.320;2022-07-23T05:21:13;11.53;;;5.85;;
32906;SDS011;19259;51.590;5.320;2022-07-23T05:23:41;10.35;;;5.50;;
32906;SDS011;19259;51.590;5.320;2022-07-23T05:26:08;12.88;;;7.40;;
32906;SDS011;19259;51.590;5.320;2022-07-23T05:28:36;11.38;;;6.42;;
32906;SDS011;19259;51.590;5.320;2022-07-23T05:31:04;11.97;;;6.62;;
32906;SDS011;19259;51.590;5.320;2022-07-23T05:33:31;11.60;;;6.67;;
32906;SDS011;19259;51.590;5.320;2022-07-23T05:36:02;13.43;;;6.67;;
32906;SDS011;19259;51.590;5.320;2022-07-23T05:38:31;10.05;;;5.78;;
32906;SDS011;19259;51.590;5.320;2022-07-23T05:40:59;11.75;;;6.47;;
32906;SDS011;19259;51.590;5.320;2022-07-23T05:43:27;10.95;;;5.87;;
32906;SDS011;19259;51.590;5.320;2022-07-23T05:45:55;14.28;;;7.05;;
32906;SDS011;19259;51.590;5.320;2022-07-23T05:48:22;11.68;;;5.85;;
32906;SDS011;19259;51.590;5.320;2022-07-23T05:50:50;9.70;;;6.10;;
32906;SDS011;19259;51.590;5.320;2022-07-23T05:53:19;11.55;;;6.17;;
32906;SDS011;19259;51.590;5.320;2022-07-23T05:55:47;8.63;;;5.95;;
32906;SDS011;19259;51.590;5.320;2022-07-23T05:58:14;12.70;;;6.55;;
32906;SDS011;19259;51.590;5.320;2022-07-23T06:00:42;12.15;;;6.22;;
32906;SDS011;19259;51.590;5.320;2022-07-23T06:03:09;12.25;;;6.85;;
32906;SDS011;19259;51.590;5.320;2022-07-23T06:05:37;10.30;;;6.12;;
32906;SDS011;19259;51.590;5.320;2022-07-23T06:08:04;9.35;;;5.37;;
32906;SDS011;19259;51.590;5.320;2022-07-23T06:10:32;13.10;;;6.67;;
32906;SDS011;19259;51.590;5.320;2022-07-23T06:12:59;10.15;;;5.90;;
32906;SDS011;19259;51.590;5.320;2022-07-23T06:15:28;10.60;;;5.80;;
32906;SDS011;19259;51.590;5.320;2022-07-23T06:17:56;12.07;;;6.08;;
32906;SDS011;19259;51.590;5.320;2022-07-23T06:20:23;9.50;;;5.70;;
32906;SDS011;19259;51.590;5.320;2022-07-23T06:22:51;10.53;;;5.47;;
32906;SDS011;19259;51.590;5.320;2022-07-23T06:25:18;9.35;;;5.15;;
32906;SDS011;19259;51.590;5.320;2022-07-23T06:27:46;8.30;;;5.20;;
32906;SDS011;19259;51.590;5.320;2022-07-23T06:30:14;9.63;;;5.33;;
32906;SDS011;19259;51.590;5.320;2022-07-23T06:32:43;11.15;;;5.40;;
32906;SDS011;19259;51.590;5.320;2022-07-23T06:35:11;11.57;;;5.10;;
32906;SDS011;19259;51.590;5.320;2022-07-23T06:37:39;7.37;;;4.70;;
32906;SDS011;19259;51.590;5.320;2022-07-23T06:40:06;9.58;;;4.17;;
32906;SDS011;19259;51.590;5.320;2022-07-23T06:42:34;10.03;;;4.55;;
32906;SDS011;19259;51.590;5.320;2022-07-23T06:45:04;10.80;;;4.90;;
32906;SDS011;19259;51.590;5.320;2022-07-23T06:47:33;9.48;;;4.53;;
32906;SDS011;19259;51.590;5.320;2022-07-23T06:50:00;7.90;;;3.83;;
32906;SDS011;19259;51.590;5.320;2022-07-23T06:52:28;5.17;;;3.42;;
32906;SDS011;19259;51.590;5.320;2022-07-23T06:54:56;9.70;;;4.83;;
32906;SDS011;19259;51.590;5.320;2022-07-23T06:57:23;8.25;;;4.25;;
32906;SDS011;19259;51.590;5.320;2022-07-23T06:59:51;8.05;;;4.12;;
32906;SDS011;19259;51.590;5.320;2022-07-23T07:02:19;8.90;;;3.70;;
32906;SDS011;19259;51.590;5.320;2022-07-23T07:04:46;8.63;;;3.90;;
32906;SDS011;19259;51.590;5.320;2022-07-23T07:07:14;9.60;;;4.15;;
32906;SDS011;19259;51.590;5.320;2022-07-23T07:09:41;7.22;;;3.87;;
32906;SDS011;19259;51.590;5.320;2022-07-23T07:12:10;8.15;;;5.17;;
32906;SDS011;19259;51.590;5.320;2022-07-23T07:14:37;9.85;;;4.37;;
32906;SDS011;19259;51.590;5.320;2022-07-23T07:17:05;7.58;;;3.72;;
32906;SDS011;19259;51.590;5.320;2022-07-23T07:19:32;5.20;;;3.25;;
32906;SDS011;19259;51.590;5.320;2022-07-23T07:22:00;6.65;;;3.58;;
32906;SDS011;19259;51.590;5.320;2022-07-23T07:24:27;8.88;;;3.62;;
32906;SDS011;19259;51.590;5.320;2022-07-23T07:26:55;7.10;;;2.90;;
32906;SDS011;19259;51.590;5.320;2022-07-23T07:29:22;8.38;;;3.55;;
32906;SDS011;19259;51.590;5.320;2022-07-23T07:31:50;6.62;;;3.37;;
32906;SDS011;19259;51.590;5.320;2022-07-23T07:34:18;7.28;;;3.00;;
32906;SDS011;19259;51.590;5.320;2022-07-23T07:36:45;8.43;;;3.17;;
32906;SDS011;19259;51.590;5.320;2022-07-23T07:39:13;7.45;;;2.72;;
32906;SDS011;19259;51.590;5.320;2022-07-23T07:41:40;10.38;;;3.33;;
32906;SDS011;19259;51.590;5.320;2022-07-23T07:44:08;7.42;;;3.05;;
32906;SDS011;19259;51.590;5.320;2022-07-23T07:46:35;6.25;;;3.00;;
32906;SDS011;19259;51.590;5.320;2022-07-23T07:49:03;7.03;;;3.50;;
32906;SDS011;19259;51.590;5.320;2022-07-23T07:51:33;6.45;;;2.98;;
32906;SDS011;19259;51.590;5.320;2022-07-23T07:54:01;8.55;;;2.85;;
32906;SDS011;19259;51.590;5.320;2022-07-23T07:56:28;6.42;;;2.52;;
32906;SDS011;19259;51.590;5.320;2022-07-23T07:58:56;6.05;;;2.60;;
32906;SDS011;19259;51.590;5.320;2022-07-23T08:01:24;4.90;;;2.85;;
32906;SDS011;19259;51.590;5.320;2022-07-23T08:03:51;7.87;;;3.30;;
32906;SDS011;19259;51.590;5.320;2022-07-23T08:06:19;5.60;;;2.92;;
32906;SDS011;19259;51.590;5.320;2022-07-23T08:08:46;7.72;;;3.00;;
32906;SDS011;19259;51.590;5.320;2022-07-23T08:11:14;7.97;;;3.15;;
32906;SDS011;19259;51.590;5.320;2022-07-23T08:13:43;9.93;;;3.20;;
32906;SDS011;19259;51.590;5.320;2022-07-23T08:16:11;9.98;;;3.52;;
32906;SDS011;19259;51.590;5.320;2022-07-23T08:18:39;5.62;;;3.67;;
32906;SDS011;19259;51.590;5.320;2022-07-23T08:21:06;4.80;;;2.95;;
32906;SDS011;19259;51.590;5.320;2022-07-23T08:23:34;6.55;;;3.62;;
32906;SDS011;19259;51.590;5.320;2022-07-23T08:26:06;8.83;;;3.72;;
32906;SDS011;19259;51.590;5.320;2022-07-23T08:28:33;10.70;;;3.60;;
32906;SDS011;19259;51.590;5.320;2022-07-23T08:31:01;9.30;;;3.87;;
32906;SDS011;19259;51.590;5.320;2022-07-23T08:33:30;11.33;;;3.60;;
32906;SDS011;19259;51.590;5.320;2022-07-23T08:35:58;8.20;;;3.30;;
32906;SDS011;19259;51.590;5.320;2022-07-23T08:38:28;5.60;;;3.35;;
32906;SDS011;19259;51.590;5.320;2022-07-23T08:40:56;7.17;;;3.30;;
32906;SDS011;19259;51.590;5.320;2022-07-23T08:43:28;7.35;;;3.90;;
32906;SDS011;19259;51.590;5.320;2022-07-23T08:45:58;8.50;;;3.92;;
32906;SDS011;19259;51.590;5.320;2022-07-23T08:48:31;6.58;;;3.40;;
32906;SDS011;19259;51.590;5.320;2022-07-23T08:51:01;6.95;;;3.17;;
32906;SDS011;19259;51.590;5.320;2022-07-23T08:53:30;8.28;;;3.55;;
32906;SDS011;19259;51.590;5.320;2022-07-23T08:55:59;8.43;;;2.75;;
32906;SDS011;19259;51.590;5.320;2022-07-23T08:58:29;9.05;;;3.83;;
32906;SDS011;19259;51.590;5.320;2022-07-23T09:00:58;5.92;;;3.33;;
32906;SDS011;19259;51.590;5.320;2022-07-23T09:03:28;9.03;;;3.15;;
32906;SDS011;19259;51.590;5.320;2022-07-23T09:06:00;9.68;;;2.70;;
32906;SDS011;19259;51.590;5.320;2022-07-23T09:11:08;5.80;;;2.83;;
32906;SDS011;19259;51.590;5.320;2022-07-23T09:13:51;5.12;;;2.50;;
32906;SDS011;19259;51.590;5.320;2022-07-23T09:16:31;7.78;;;2.95;;
32906;SDS011;19259;51.590;5.320;2022-07-23T09:18:56;4.53;;;2.30;;
32906;SDS011;19259;51.590;5.320;2022-07-23T09:21:26;9.23;;;2.55;;
32906;SDS011;19259;51.590;5.320;2022-07-23T09:23:59;5.97;;;2.20;;
32906;SDS011;19259;51.590;5.320;2022-07-23T09:29:06;5.33;;;2.60;;
32906;SDS011;19259;51.590;5.320;2022-07-23T09:31:46;6.22;;;2.58;;
32906;SDS011;19259;51.590;5.320;2022-07-23T09:36:49;6.00;;;2.05;;
32906;SDS011;19259;51.590;5.320;2022-07-23T09:39:25;6.70;;;2.90;;
32906;SDS011;19259;51.590;5.320;2022-07-23T09:41:55;7.58;;;3.50;;
32906;SDS011;19259;51.590;5.320;2022-07-23T09:44:24;5.10;;;2.17;;
32906;SDS011;19259;51.590;5.320;2022-07-23T09:46:57;5.62;;;3.05;;
32906;SDS011;19259;51.590;5.320;2022-07-23T09:49:22;12.60;;;3.58;;
32906;SDS011;19259;51.590;5.320;2022-07-23T09:51:55;8.00;;;3.37;;
32906;SDS011;19259;51.590;5.320;2022-07-23T09:57:05;4.45;;;2.70;;
32906;SDS011;19259;51.590;5.320;2022-07-23T09:59:36;4.90;;;2.47;;
32906;SDS011;19259;51.590;5.320;2022-07-23T10:02:06;6.78;;;2.72;;
32906;SDS011;19259;51.590;5.320;2022-07-23T10:04:35;6.08;;;2.37;;
32906;SDS011;19259;51.590;5.320;2022-07-23T10:07:04;5.37;;;2.30;;
32906;SDS011;19259;51.590;5.320;2022-07-23T10:09:37;7.53;;;2.65;;
32906;SDS011;19259;51.590;5.320;2022-07-23T10:12:14;4.67;;;2.25;;
32906;SDS011;19259;51.590;5.320;2022-07-23T10:14:50;4.00;;;2.20;;
32906;SDS011;19259;51.590;5.320;2022-07-23T10:17:18;7.30;;;3.45;;
32906;SDS011;19259;51.590;5.320;2022-07-23T10:19:45;4.05;;;2.50;;
32906;SDS011;19259;51.590;5.320;2022-07-23T10:22:13;7.10;;;2.55;;
32906;SDS011;19259;51.590;5.320;2022-07-23T10:24:51;5.50;;;2.52;;
32906;SDS011;19259;51.590;5.320;2022-07-23T10:33:23;3.25;;;1.80;;
32906;SDS011;19259;51.590;5.320;2022-07-23T10:35:50;4.58;;;1.95;;
32906;SDS011;19259;51.590;5.320;2022-07-23T10:38:37;3.10;;;1.70;;
32906;SDS011;19259;51.590;5.320;2022-07-23T10:41:10;4.30;;;1.92;;
32906;SDS011;19259;51.590;5.320;2022-07-23T10:43:37;3.70;;;1.98;;
32906;SDS011;19259;51.590;5.320;2022-07-23T10:46:22;3.72;;;2.30;;
32906;SDS011;19259;51.590;5.320;2022-07-23T10:49:28;6.22;;;2.67;;
32906;SDS011;19259;51.590;5.320;2022-07-23T10:52:20;4.53;;;2.17;;
32906;SDS011;19259;51.590;5.320;2022-07-23T10:54:50;6.90;;;2.35;;
32906;SDS011;19259;51.590;5.320;2022-07-23T10:57:20;5.00;;;1.87;;
32906;SDS011;19259;51.590;5.320;2022-07-23T11:02:37;4.90;;;2.33;;
32906;SDS011;19259;51.590;5.320;2022-07-23T11:05:07;6.17;;;2.40;;
32906;SDS011;19259;51.590;5.320;2022-07-23T11:07:37;6.92;;;1.60;;
32906;SDS011;19259;51.590;5.320;2022-07-23T11:24:08;3.80;;;1.50;;
32906;SDS011;19259;51.590;5.320;2022-07-23T11:32:02;6.10;;;2.95;;
32906;SDS011;19259;51.590;5.320;2022-07-23T11:37:26;6.62;;;2.37;;
32906;SDS011;19259;51.590;5.320;2022-07-23T11:39:55;3.72;;;2.52;;
32906;SDS011;19259;51.590;5.320;2022-07-23T11:42:24;4.12;;;2.58;;
32906;SDS011;19259;51.590;5.320;2022-07-23T11:44:52;4.03;;;2.42;;
32906;SDS011;19259;51.590;5.320;2022-07-23T11:47:23;3.12;;;1.57;;
32906;SDS011;19259;51.590;5.320;2022-07-23T11:49:53;4.30;;;2.33;;
32906;SDS011;19259;51.590;5.320;2022-07-23T11:52:23;5.15;;;2.50;;
32906;SDS011;19259;51.590;5.320;2022-07-23T11:54:52;6.65;;;2.85;;
32906;SDS011;19259;51.590;5.320;2022-07-23T11:57:28;5.70;;;2.20;;
32906;SDS011;19259;51.590;5.320;2022-07-23T12:00:02;4.22;;;1.90;;
32906;SDS011;19259;51.590;5.320;2022-07-23T12:02:46;3.80;;;2.30;;
32906;SDS011;19259;51.590;5.320;2022-07-23T12:05:12;3.47;;;1.95;;
32906;SDS011;19259;51.590;5.320;2022-07-23T12:07:44;4.12;;;2.10;;
32906;SDS011;19259;51.590;5.320;2022-07-23T12:10:23;4.55;;;1.98;;
32906;SDS011;19259;51.590;5.320;2022-07-23T12:12:52;3.60;;;1.98;;
32906;SDS011;19259;51.590;5.320;2022-07-23T12:15:22;6.80;;;1.60;;
32906;SDS011;19259;51.590;5.320;2022-07-23T12:17:53;5.05;;;1.90;;
32906;SDS011;19259;51.590;5.320;2022-07-23T12:20:21;6.15;;;1.70;;
32906;SDS011;19259;51.590;5.320;2022-07-23T12:23:02;3.25;;;1.72;;
32906;SDS011;19259;51.590;5.320;2022-07-23T12:25:32;3.55;;;1.70;;
32906;SDS011;19259;51.590;5.320;2022-07-23T12:28:14;3.37;;;1.80;;
32906;SDS011;19259;51.590;5.320;2022-07-23T12:30:44;4.03;;;2.05;;
32906;SDS011;19259;51.590;5.320;2022-07-23T12:33:15;2.72;;;1.70;;
32906;SDS011;19259;51.590;5.320;2022-07-23T12:35:55;3.40;;;2.15;;
32906;SDS011;19259;51.590;5.320;2022-07-23T12:38:27;4.00;;;2.15;;
32906;SDS011;19259;51.590;5.320;2022-07-23T12:40:59;3.90;;;1.90;;
32906;SDS011;19259;51.590;5.320;2022-07-23T12:43:30;5.22;;;2.52;;
32906;SDS011;19259;51.590;5.320;2022-07-23T12:46:11;5.67;;;2.22;;
32906;SDS011;19259;51.590;5.320;2022-07-23T12:51:24;6.87;;;2.35;;
32906;SDS011;19259;51.590;5.320;2022-07-23T12:53:56;4.70;;;2.40;;
32906;SDS011;19259;51.590;5.320;2022-07-23T12:56:29;3.30;;;2.20;;
32906;SDS011;19259;51.590;5.320;2022-07-23T12:58:59;4.03;;;1.95;;
32906;SDS011;19259;51.590;5.320;2022-07-23T13:01:33;3.08;;;1.98;;
32906;SDS011;19259;51.590;5.320;2022-07-23T13:04:09;6.87;;;2.20;;
32906;SDS011;19259;51.590;5.320;2022-07-23T13:06:49;2.85;;;1.82;;
32906;SDS011;19259;51.590;5.320;2022-07-23T13:09:16;4.42;;;1.80;;
32906;SDS011;19259;51.590;5.320;2022-07-23T13:11:48;3.47;;;1.90;;
32906;SDS011;19259;51.590;5.320;2022-07-23T13:14:17;4.72;;;2.22;;
32906;SDS011;19259;51.590;5.320;2022-07-23T13:16:46;3.85;;;1.87;;
32906;SDS011;19259;51.590;5.320;2022-07-23T13:19:15;4.33;;;2.55;;
32906;SDS011;19259;51.590;5.320;2022-07-23T13:21:45;5.62;;;2.08;;
32906;SDS011;19259;51.590;5.320;2022-07-23T13:24:16;3.80;;;2.25;;
32906;SDS011;19259;51.590;5.320;2022-07-23T13:26:44;5.22;;;2.40;;
32906;SDS011;19259;51.590;5.320;2022-07-23T13:29:12;6.33;;;2.30;;
32906;SDS011;19259;51.590;5.320;2022-07-23T13:31:40;3.87;;;2.25;;
32906;SDS011;19259;51.590;5.320;2022-07-23T13:34:07;5.47;;;2.55;;
32906;SDS011;19259;51.590;5.320;2022-07-23T13:36:35;4.17;;;2.30;;
32906;SDS011;19259;51.590;5.320;2022-07-23T13:39:03;4.20;;;2.10;;
32906;SDS011;19259;51.590;5.320;2022-07-23T13:41:31;4.45;;;2.10;;
32906;SDS011;19259;51.590;5.320;2022-07-23T13:43:59;3.80;;;2.02;;
32906;SDS011;19259;51.590;5.320;2022-07-23T13:46:27;4.40;;;2.65;;
32906;SDS011;19259;51.590;5.320;2022-07-23T13:48:54;6.22;;;2.45;;
32906;SDS011;19259;51.590;5.320;2022-07-23T13:51:22;6.50;;;2.60;;
32906;SDS011;19259;51.590;5.320;2022-07-23T13:53:50;4.87;;;2.42;;
32906;SDS011;19259;51.590;5.320;2022-07-23T13:56:18;5.30;;;2.52;;
32906;SDS011;19259;51.590;5.320;2022-07-23T13:58:46;3.62;;;2.08;;
32906;SDS011;19259;51.590;5.320;2022-07-23T14:01:13;3.90;;;1.95;;
32906;SDS011;19259;51.590;5.320;2022-07-23T14:03:40;4.75;;;2.02;;
32906;SDS011;19259;51.590;5.320;2022-07-23T14:06:08;4.42;;;1.98;;
32906;SDS011;19259;51.590;5.320;2022-07-23T14:08:36;3.75;;;1.55;;
32906;SDS011;19259;51.590;5.320;2022-07-23T14:11:03;3.00;;;2.00;;
32906;SDS011;19259;51.590;5.320;2022-07-23T14:13:31;5.15;;;2.42;;
32906;SDS011;19259;51.590;5.320;2022-07-23T14:15:58;4.97;;;2.00;;
32906;SDS011;19259;51.590;5.320;2022-07-23T14:18:26;3.77;;;2.30;;
32906;SDS011;19259;51.590;5.320;2022-07-23T14:20:53;4.17;;;2.50;;
32906;SDS011;19259;51.590;5.320;2022-07-23T14:23:21;5.75;;;2.40;;
32906;SDS011;19259;51.590;5.320;2022-07-23T14:25:48;5.78;;;2.47;;
32906;SDS011;19259;51.590;5.320;2022-07-23T14:28:16;7.87;;;2.55;;
32906;SDS011;19259;51.590;5.320;2022-07-23T14:30:44;5.30;;;2.50;;
32906;SDS011;19259;51.590;5.320;2022-07-23T14:33:11;5.47;;;2.60;;
32906;SDS011;19259;51.590;5.320;2022-07-23T14:35:40;5.78;;;2.25;;
32906;SDS011;19259;51.590;5.320;2022-07-23T14:38:08;5.72;;;2.27;;
32906;SDS011;19259;51.590;5.320;2022-07-23T14:40:36;4.70;;;2.40;;
32906;SDS011;19259;51.590;5.320;2022-07-23T14:43:03;6.05;;;2.40;;
32906;SDS011;19259;51.590;5.320;2022-07-23T14:45:31;4.15;;;2.15;;
32906;SDS011;19259;51.590;5.320;2022-07-23T14:47:58;4.20;;;2.77;;
32906;SDS011;19259;51.590;5.320;2022-07-23T14:50:26;4.58;;;2.30;;
32906;SDS011;19259;51.590;5.320;2022-07-23T14:52:53;3.85;;;2.15;;
32906;SDS011;19259;51.590;5.320;2022-07-23T14:55:21;6.22;;;2.62;;
32906;SDS011;19259;51.590;5.320;2022-07-23T14:57:49;7.95;;;2.70;;
32906;SDS011;19259;51.590;5.320;2022-07-23T15:00:16;3.15;;;2.00;;
32906;SDS011;19259;51.590;5.320;2022-07-23T15:02:45;6.33;;;2.62;;
32906;SDS011;19259;51.590;5.320;2022-07-23T15:05:13;7.58;;;3.25;;
32906;SDS011;19259;51.590;5.320;2022-07-23T15:07:40;6.90;;;2.58;;
32906;SDS011;19259;51.590;5.320;2022-07-23T15:10:08;6.62;;;2.40;;
32906;SDS011;19259;51.590;5.320;2022-07-23T15:12:36;4.17;;;2.30;;
32906;SDS011;19259;51.590;5.320;2022-07-23T15:15:04;4.20;;;2.05;;
32906;SDS011;19259;51.590;5.320;2022-07-23T15:17:32;4.42;;;2.42;;
32906;SDS011;19259;51.590;5.320;2022-07-23T15:20:00;6.22;;;2.72;;
32906;SDS011;19259;51.590;5.320;2022-07-23T15:22:27;6.40;;;2.62;;
32906;SDS011;19259;51.590;5.320;2022-07-23T15:24:55;5.40;;;2.72;;
32906;SDS011;19259;51.590;5.320;2022-07-23T15:27:22;5.35;;;2.40;;
32906;SDS011;19259;51.590;5.320;2022-07-23T15:29:50;6.20;;;3.20;;
32906;SDS011;19259;51.590;5.320;2022-07-23T15:32:17;7.25;;;3.08;;
32906;SDS011;19259;51.590;5.320;2022-07-23T15:34:45;4.12;;;2.50;;
32906;SDS011;19259;51.590;5.320;2022-07-23T15:37:12;5.28;;;2.65;;